TAF KPBI
KPBI 280524Z 2806/2906 VRB03KT P6SM FEW035 FM281600 31006KT P6SM FEW040 FM290100 VRB03KT P6SM SCT030=
METAR KPBI
KPBI 280753Z 28003KT 10SM FEW250 16/14 A3003 RMK AO2 SLP169 T01560144 ? ?
KPBI 280653Z 28003KT 10SM FEW250 16/14 A3003 RMK AO2 SLP169 T01560139 ?
KPBI 280553Z 32004KT 10SM CLR 14/13 A3004 RMK AO2 SLP173 T01440133 10183 20144 58012 ? ?
KPBI 280453Z 32004KT 10SM CLR 16/14 A3006 RMK AO2 SLP177 T01560139 402440150 ? ?
KPBI 280353Z 31007KT 10SM CLR 16/14 A3007 RMK AO2 SLP183 T01610139 ?
WC KPBI
WS KPBI
WV KPBI